createdAt,value
2023-06-19T00:00:08.418Z,100749.75
2023-06-19T00:03:00.986Z,100745.59
2023-06-19T00:05:30.079Z,100743.25
2023-06-19T00:08:00.665Z,100744.94
2023-06-19T00:10:29.621Z,100754.41
2023-06-19T00:12:58.725Z,100749.19
2023-06-19T00:15:30.576Z,100753.75
2023-06-19T00:18:00.917Z,100751.34
2023-06-19T00:20:29.785Z,100742.59
2023-06-19T00:22:59.019Z,100750.59
2023-06-19T00:25:27.729Z,100757.22
2023-06-19T00:27:56.745Z,100760.53
2023-06-19T00:30:25.759Z,100751.00
2023-06-19T00:32:55.365Z,100755.00
2023-06-19T00:35:28.508Z,100759.00
2023-06-19T00:37:57.644Z,100757.41
2023-06-19T00:40:31.584Z,100755.38
2023-06-19T00:43:01.041Z,100755.25
2023-06-19T00:45:30.019Z,100762.25
2023-06-19T00:48:00.732Z,100770.25
2023-06-19T00:50:31.430Z,100769.13
2023-06-19T00:53:01.027Z,100772.31
2023-06-19T00:55:32.744Z,100776.84
2023-06-19T00:58:02.031Z,100776.50
2023-06-19T01:00:30.846Z,100778.50
2023-06-19T01:03:00.997Z,100784.75
2023-06-19T01:05:31.535Z,100788.59
2023-06-19T01:08:15.520Z,100789.09
2023-06-19T01:10:51.308Z,100789.50
2023-06-19T01:13:33.814Z,100787.00
2023-06-19T01:16:03.496Z,100791.16
2023-06-19T01:18:35.960Z,100803.94
2023-06-19T01:21:18.998Z,100803.66
2023-06-19T01:24:13.490Z,100806.34
2023-06-19T01:26:43.168Z,100799.28
2023-06-19T01:29:12.878Z,100805.50
2023-06-19T01:32:06.773Z,100809.91
2023-06-19T01:34:36.447Z,100808.34
2023-06-19T01:37:06.847Z,100809.63
2023-06-19T01:39:37.350Z,100805.63
2023-06-19T01:42:06.735Z,100806.81
2023-06-19T01:44:36.736Z,100819.16
2023-06-19T01:47:12.486Z,100809.44
2023-06-19T01:49:41.585Z,100813.47
2023-06-19T01:52:10.298Z,100815.63
2023-06-19T01:54:39.333Z,100813.66
2023-06-19T01:57:09.450Z,100815.31
2023-06-19T01:59:38.907Z,100802.34
2023-06-19T02:02:08.089Z,100809.06
2023-06-19T02:04:37.204Z,100809.22
2023-06-19T02:07:06.197Z,100818.28
2023-06-19T02:09:35.563Z,100824.88
2023-06-19T02:12:04.466Z,100835.13
2023-06-19T02:14:33.503Z,100831.28
2023-06-19T02:17:02.298Z,100838.50
2023-06-19T02:19:31.414Z,100832.31
2023-06-19T02:22:00.135Z,100830.50
2023-06-19T02:24:29.411Z,100832.69
2023-06-19T02:26:58.325Z,100835.66
2023-06-19T02:29:27.764Z,100828.59
2023-06-19T02:31:56.974Z,100838.06
2023-06-19T02:34:26.119Z,100834.34
2023-06-19T02:36:54.783Z,100842.41
2023-06-19T02:39:25.046Z,100830.88
2023-06-19T02:41:53.866Z,100840.09
2023-06-19T02:44:23.074Z,100831.84
2023-06-19T02:46:51.938Z,100829.22
2023-06-19T02:49:21.064Z,100834.19
2023-06-19T02:51:49.785Z,100831.72
2023-06-19T02:54:18.944Z,100828.81
2023-06-19T02:56:47.752Z,100833.69
2023-06-19T02:59:20.441Z,100835.41
2023-06-19T03:01:49.331Z,100840.81
2023-06-19T03:04:18.855Z,100838.28
2023-06-19T03:06:47.607Z,100835.97
2023-06-19T03:09:17.498Z,100837.50
2023-06-19T03:11:46.484Z,100845.44
2023-06-19T03:14:16.269Z,100846.34
2023-06-19T03:16:45.168Z,100845.47
2023-06-19T03:19:14.940Z,100841.38
2023-06-19T03:21:43.687Z,100839.97
2023-06-19T03:24:13.930Z,100843.09
2023-06-19T03:26:42.704Z,100853.78
2023-06-19T03:29:11.963Z,100838.72
2023-06-19T03:32:10.146Z,100837.31
2023-06-19T03:34:39.392Z,100841.69
2023-06-19T03:37:10.783Z,100839.78
2023-06-19T03:39:39.892Z,100843.53
2023-06-19T03:42:11.594Z,100844.44
2023-06-19T03:44:42.077Z,100845.81
2023-06-19T03:47:10.859Z,100846.38
2023-06-19T03:49:40.058Z,100849.13
2023-06-19T03:52:09.533Z,100858.31
2023-06-19T03:54:38.877Z,100858.19
2023-06-19T03:57:09.827Z,100852.53
2023-06-19T03:59:39.033Z,100849.00
2023-06-19T04:02:07.770Z,100848.16
2023-06-19T04:04:36.852Z,100851.06
2023-06-19T04:07:07.260Z,100860.66
2023-06-19T04:09:36.351Z,100858.63
2023-06-19T04:12:05.413Z,100845.50
2023-06-19T04:14:35.069Z,100855.59
2023-06-19T04:17:03.873Z,100847.53
2023-06-19T04:19:33.162Z,100851.25
2023-06-19T04:22:01.861Z,100853.00
2023-06-19T04:24:30.922Z,100850.59
2023-06-19T04:27:00.045Z,100846.53
2023-06-19T04:29:33.208Z,100847.13
2023-06-19T04:32:04.430Z,100837.22
2023-06-19T04:34:33.702Z,100843.72
2023-06-19T04:37:02.456Z,100853.09
2023-06-19T04:39:31.690Z,100853.09
2023-06-19T04:42:00.713Z,100848.06
2023-06-19T04:44:34.845Z,100845.25
2023-06-19T04:47:03.676Z,100833.28
2023-06-19T04:49:32.773Z,100848.34
2023-06-19T04:52:01.791Z,100843.97
2023-06-19T04:54:33.982Z,100847.28
2023-06-19T04:57:02.929Z,100848.09
2023-06-19T04:59:32.606Z,100839.53
2023-06-19T05:02:01.512Z,100849.03
2023-06-19T05:04:34.123Z,100842.28
2023-06-19T05:07:03.252Z,100844.69
2023-06-19T05:09:32.357Z,100846.69
2023-06-19T05:12:01.079Z,100842.88
2023-06-19T05:14:30.151Z,100847.69
2023-06-19T05:16:59.034Z,100850.94
2023-06-19T05:19:28.289Z,100847.72
2023-06-19T05:21:57.050Z,100847.72
2023-06-19T05:24:26.159Z,100859.84
2023-06-19T05:26:54.945Z,100856.50
2023-06-19T05:29:24.063Z,100850.75
2023-06-19T05:31:52.994Z,100847.84
2023-06-19T05:34:24.108Z,100853.84
2023-06-19T05:36:52.861Z,100850.16
2023-06-19T05:39:22.001Z,100849.13
2023-06-19T05:41:50.779Z,100846.41
2023-06-19T05:44:20.334Z,100847.94
2023-06-19T05:46:49.114Z,100852.56
2023-06-19T05:49:18.302Z,100851.28
2023-06-19T05:51:47.159Z,100857.19
2023-06-19T05:54:16.551Z,100855.88
2023-06-19T05:56:45.237Z,100857.28
2023-06-19T05:59:15.944Z,100863.53
2023-06-19T06:01:45.015Z,100854.63
2023-06-19T06:04:15.472Z,100862.66
2023-06-19T06:06:44.455Z,100859.63
2023-06-19T06:09:14.468Z,100864.03
2023-06-19T06:11:43.533Z,100860.97
2023-06-19T06:14:13.552Z,100862.66
2023-06-19T06:16:42.817Z,100863.66
2023-06-19T06:19:12.066Z,100860.75
2023-06-19T06:21:41.755Z,100861.16
2023-06-19T06:24:10.974Z,100859.81
2023-06-19T06:26:39.904Z,100857.59
2023-06-19T06:29:09.390Z,100846.34
2023-06-19T06:31:39.511Z,100862.75
2023-06-19T06:34:10.056Z,100855.50
2023-06-19T06:36:43.987Z,100854.13
2023-06-19T06:39:16.052Z,100842.25
2023-06-19T06:41:44.828Z,100845.78
2023-06-19T06:44:15.489Z,100833.56
2023-06-19T06:46:44.276Z,100837.03
2023-06-19T06:49:13.811Z,100834.19
2023-06-19T06:51:42.606Z,100825.34
2023-06-19T06:54:11.748Z,100834.06
2023-06-19T06:56:40.522Z,100837.84
2023-06-19T06:59:09.641Z,100830.56
2023-06-19T07:01:38.597Z,100828.41
2023-06-19T07:04:08.067Z,100828.53
2023-06-19T07:06:36.852Z,100827.16
2023-06-19T07:09:06.079Z,100825.59
2023-06-19T07:11:34.966Z,100837.22
2023-06-19T07:14:04.606Z,100822.03
2023-06-19T07:16:33.448Z,100822.69
2023-06-19T07:19:02.701Z,100825.34
2023-06-19T07:21:32.755Z,100816.66
2023-06-19T07:24:01.870Z,100818.03
2023-06-19T07:26:30.657Z,100815.75
2023-06-19T07:28:59.807Z,100813.50
2023-06-19T07:31:28.603Z,100816.19
2023-06-19T07:33:57.773Z,100812.72
2023-06-19T07:36:26.588Z,100816.50
2023-06-19T07:38:57.185Z,100822.72
2023-06-19T07:41:25.952Z,100816.78
2023-06-19T07:43:55.074Z,100823.19
2023-06-19T07:46:23.889Z,100826.94
2023-06-19T07:48:52.986Z,100828.69
2023-06-19T07:51:21.849Z,100830.47
2023-06-19T07:53:51.054Z,100836.97
2023-06-19T07:56:19.853Z,100832.53
2023-06-19T07:58:49.231Z,100835.13
2023-06-19T08:01:18.464Z,100836.25
2023-06-19T08:03:48.148Z,100838.22
2023-06-19T08:06:17.123Z,100838.09
2023-06-19T08:08:46.663Z,100843.31
2023-06-19T08:11:15.530Z,100851.22
2023-06-19T08:13:44.859Z,100853.69
2023-06-19T08:16:13.660Z,100850.25
2023-06-19T08:18:43.808Z,100858.41
2023-06-19T08:21:12.847Z,100858.63
2023-06-19T08:23:45.009Z,100855.34
2023-06-19T08:26:13.912Z,100866.09
2023-06-19T08:28:43.429Z,100868.81
2023-06-19T08:31:12.747Z,100869.53
2023-06-19T08:33:41.962Z,100871.44
2023-06-19T08:36:10.859Z,100864.13
2023-06-19T08:38:40.073Z,100873.31
2023-06-19T08:41:08.861Z,100869.03
2023-06-19T08:43:39.533Z,100881.53
2023-06-19T08:46:19.051Z,100871.34
2023-06-19T08:48:50.609Z,100875.09
2023-06-19T08:51:19.543Z,100878.53
2023-06-19T08:53:53.593Z,100876.38
2023-06-19T08:56:22.524Z,100879.72
2023-06-19T08:58:52.146Z,100877.38
2023-06-19T09:01:21.093Z,100878.84
2023-06-19T09:03:54.034Z,100868.06
2023-06-19T09:06:23.184Z,100875.69
2023-06-19T09:09:01.928Z,100870.84
2023-06-19T09:11:31.946Z,100872.69
2023-06-19T09:14:01.114Z,100865.00
2023-06-19T09:16:40.286Z,100858.25
2023-06-19T09:19:09.760Z,100870.41
2023-06-19T09:21:39.625Z,100862.97
2023-06-19T09:24:09.641Z,100871.06
2023-06-19T09:26:39.714Z,100869.56
2023-06-19T09:29:20.209Z,100875.72
2023-06-19T09:31:49.348Z,100871.72
2023-06-19T09:34:18.597Z,100871.13
2023-06-19T09:36:47.401Z,100858.53
2023-06-19T09:39:16.851Z,100862.47
2023-06-19T09:41:48.178Z,100865.47
2023-06-19T09:44:17.572Z,100865.72
2023-06-19T09:46:47.309Z,100862.69
2023-06-19T09:49:16.627Z,100860.91
2023-06-19T09:51:46.764Z,100862.78
2023-06-19T09:54:16.086Z,100860.72
2023-06-19T09:56:44.896Z,100849.59
2023-06-19T09:59:14.975Z,100854.75
2023-06-19T10:01:44.325Z,100861.25
2023-06-19T10:04:14.388Z,100859.94
2023-06-19T10:06:50.330Z,100855.75
2023-06-19T10:09:19.686Z,100858.84
2023-06-19T10:11:54.949Z,100860.31
2023-06-19T10:14:24.250Z,100864.53
2023-06-19T10:16:53.031Z,100863.13
2023-06-19T10:19:23.364Z,100861.06
2023-06-19T10:21:54.468Z,100861.53
2023-06-19T10:24:25.614Z,100856.09
2023-06-19T10:27:01.742Z,100859.19
2023-06-19T10:29:41.049Z,100858.72
2023-06-19T10:32:12.311Z,100856.13
2023-06-19T10:34:41.825Z,100856.56
2023-06-19T10:37:10.634Z,100851.47
2023-06-19T10:39:39.845Z,100858.97
2023-06-19T10:42:09.651Z,100851.53
2023-06-19T10:44:39.410Z,100850.88
2023-06-19T10:47:11.729Z,100847.88
2023-06-19T10:49:40.866Z,100853.47
2023-06-19T10:52:10.015Z,100849.34
2023-06-19T10:54:42.021Z,100845.47
2023-06-19T10:57:10.803Z,100849.59
2023-06-19T10:59:41.172Z,100841.41
2023-06-19T11:02:10.240Z,100846.13
2023-06-19T11:04:40.946Z,100836.97
2023-06-19T11:07:10.107Z,100837.69
2023-06-19T11:09:40.508Z,100826.88
2023-06-19T11:12:13.021Z,100833.81
2023-06-19T11:14:43.785Z,100833.16
2023-06-19T11:17:12.740Z,100831.09
2023-06-19T11:19:44.940Z,100823.13
2023-06-19T11:22:13.969Z,100822.50
2023-06-19T11:24:47.271Z,100819.22
2023-06-19T11:27:20.220Z,100819.31
2023-06-19T11:29:49.327Z,100824.97
2023-06-19T11:32:26.429Z,100822.91
2023-06-19T11:34:55.995Z,100811.19
2023-06-19T11:37:24.904Z,100816.22
2023-06-19T11:39:54.911Z,100815.94
2023-06-19T11:42:25.591Z,100805.78
2023-06-19T11:44:58.405Z,100812.00
2023-06-19T11:47:27.528Z,100804.84
2023-06-19T11:49:56.955Z,100805.13
2023-06-19T11:52:25.861Z,100811.41
2023-06-19T11:54:55.124Z,100805.84
2023-06-19T11:57:24.267Z,100807.44
2023-06-19T11:59:53.420Z,100803.69
2023-06-19T12:02:22.222Z,100794.50
2023-06-19T12:04:51.609Z,100796.06
2023-06-19T12:07:21.150Z,100785.63
2023-06-19T12:09:50.378Z,100783.56
2023-06-19T12:12:19.203Z,100781.03
2023-06-19T12:14:48.597Z,100778.00
2023-06-19T12:17:17.519Z,100766.47
2023-06-19T12:19:46.692Z,100768.19
2023-06-19T12:22:15.508Z,100763.81
2023-06-19T12:24:44.687Z,100759.41
2023-06-19T12:27:13.587Z,100768.19
2023-06-19T12:29:42.829Z,100763.84
2023-06-19T12:32:11.616Z,100764.88
2023-06-19T12:34:41.753Z,100764.66
2023-06-19T12:37:10.597Z,100767.19
2023-06-19T12:39:39.836Z,100762.81
2023-06-19T12:42:09.038Z,100764.22
2023-06-19T12:44:38.187Z,100751.41
2023-06-19T12:47:07.553Z,100759.72
2023-06-19T12:49:36.766Z,100757.47
2023-06-19T12:52:05.990Z,100753.50
2023-06-19T12:54:35.290Z,100747.06
2023-06-19T12:57:04.465Z,100742.47
2023-06-19T12:59:34.073Z,100744.75
2023-06-19T13:02:03.129Z,100744.38
2023-06-19T13:04:32.333Z,100744.50
2023-06-19T13:07:01.204Z,100737.38
2023-06-19T13:09:31.354Z,100736.47
2023-06-19T13:12:00.175Z,100737.09
2023-06-19T13:14:29.496Z,100738.00
2023-06-19T13:17:00.102Z,100738.25
2023-06-19T13:19:29.378Z,100739.34
2023-06-19T13:21:58.267Z,100751.84
2023-06-19T13:24:30.351Z,100737.44
2023-06-19T13:26:59.327Z,100750.72
2023-06-19T13:29:28.943Z,100747.91
2023-06-19T13:31:57.755Z,100743.16
2023-06-19T13:34:27.459Z,100746.69
2023-06-19T13:36:56.249Z,100749.59
2023-06-19T13:39:25.406Z,100740.78
2023-06-19T13:41:54.203Z,100754.31
2023-06-19T13:44:23.393Z,100741.66
2023-06-19T13:46:52.297Z,100747.06
2023-06-19T13:49:21.445Z,100739.16
2023-06-19T13:51:50.325Z,100730.56
2023-06-19T13:54:20.202Z,100723.91
2023-06-19T13:56:49.544Z,100715.44
2023-06-19T13:59:18.668Z,100716.13
2023-06-19T14:01:47.613Z,100725.66
2023-06-19T14:04:16.845Z,100716.47
2023-06-19T14:06:45.624Z,100716.28
2023-06-19T14:09:14.863Z,100712.31
2023-06-19T14:11:45.418Z,100715.75
2023-06-19T14:14:14.809Z,100721.94
2023-06-19T14:16:43.644Z,100719.22
2023-06-19T14:19:12.816Z,100711.25
2023-06-19T14:21:41.637Z,100716.31
2023-06-19T14:24:10.838Z,100711.34
2023-06-19T14:26:39.703Z,100709.69
2023-06-19T14:29:09.691Z,100707.81
2023-06-19T14:31:38.504Z,100710.56
2023-06-19T14:34:08.010Z,100705.34
2023-06-19T14:36:38.621Z,100709.28
2023-06-19T14:39:07.803Z,100715.56
2023-06-19T14:41:36.883Z,100709.28
2023-06-19T14:44:07.270Z,100705.94
2023-06-19T14:46:40.929Z,100702.16
2023-06-19T14:49:14.359Z,100707.19
2023-06-19T14:51:46.011Z,100709.31
2023-06-19T14:54:17.053Z,100704.31
2023-06-19T14:56:49.492Z,100704.72
2023-06-19T14:59:19.722Z,100712.41
2023-06-19T15:01:48.583Z,100696.63
2023-06-19T15:04:17.861Z,100701.59
2023-06-19T15:06:47.311Z,100699.69
2023-06-19T15:09:16.612Z,100699.50
2023-06-19T15:11:45.461Z,100698.28
2023-06-19T15:14:14.621Z,100700.97
2023-06-19T15:16:43.441Z,100695.75
2023-06-19T15:19:13.103Z,100682.22
2023-06-19T15:21:43.489Z,100698.50
2023-06-19T15:24:12.737Z,100682.44
2023-06-19T15:26:41.572Z,100689.31
2023-06-19T15:29:11.779Z,100686.81
2023-06-19T15:31:40.674Z,100690.75
2023-06-19T15:34:10.030Z,100690.97
2023-06-19T15:36:38.813Z,100685.16
2023-06-19T15:39:07.955Z,100696.81
2023-06-19T15:41:36.862Z,100697.63
2023-06-19T15:44:06.138Z,100688.06
2023-06-19T15:46:35.066Z,100697.25
2023-06-19T15:49:04.474Z,100690.78
2023-06-19T15:51:33.403Z,100694.13
2023-06-19T15:54:04.238Z,100693.06
2023-06-19T15:56:33.653Z,100688.91
2023-06-19T15:59:02.850Z,100689.94
2023-06-19T16:01:31.597Z,100680.34
2023-06-19T16:04:02.142Z,100688.25
2023-06-19T16:06:31.190Z,100683.88
2023-06-19T16:09:01.014Z,100691.81
2023-06-19T16:11:31.371Z,100681.81
2023-06-19T16:14:00.893Z,100677.22
2023-06-19T16:16:29.752Z,100680.56
2023-06-19T16:18:59.018Z,100682.44
2023-06-19T16:21:29.285Z,100685.13
2023-06-19T16:23:58.423Z,100684.94
2023-06-19T16:26:27.350Z,100677.22
2023-06-19T16:28:56.450Z,100687.22
2023-06-19T16:31:25.379Z,100677.63
2023-06-19T16:33:54.583Z,100682.44
2023-06-19T16:36:23.926Z,100686.38
2023-06-19T16:38:53.172Z,100685.56
2023-06-19T16:41:21.936Z,100687.66
2023-06-19T16:43:51.254Z,100675.97
2023-06-19T16:46:20.105Z,100690.78
2023-06-19T16:48:49.233Z,100682.22
2023-06-19T16:51:18.033Z,100687.22
2023-06-19T16:53:47.249Z,100682.41
2023-06-19T16:56:16.382Z,100687.63
2023-06-19T16:58:45.564Z,100694.94
2023-06-19T17:01:14.334Z,100694.50
2023-06-19T17:03:43.560Z,100697.66
2023-06-19T17:06:12.481Z,100699.75
2023-06-19T17:08:41.782Z,100707.03
2023-06-19T17:11:10.639Z,100702.22
2023-06-19T17:13:40.020Z,100711.00
2023-06-19T17:16:08.950Z,100704.31
2023-06-19T17:18:38.228Z,100715.78
2023-06-19T17:21:07.080Z,100709.31
2023-06-19T17:23:36.437Z,100707.66
2023-06-19T17:26:05.327Z,100712.44
2023-06-19T17:28:34.649Z,100713.91
2023-06-19T17:31:03.738Z,100718.09
2023-06-19T17:33:32.912Z,100716.41
2023-06-19T17:36:02.626Z,100715.56
2023-06-19T17:38:32.056Z,100713.91
2023-06-19T17:41:01.781Z,100718.28
2023-06-19T17:43:30.840Z,100720.56
2023-06-19T17:45:59.716Z,100728.28
2023-06-19T17:48:29.359Z,100721.41
2023-06-19T17:50:58.282Z,100727.66
2023-06-19T17:53:27.380Z,100729.94
2023-06-19T17:55:56.363Z,100726.81
2023-06-19T17:58:25.493Z,100728.06
2023-06-19T18:00:54.642Z,100717.25
2023-06-19T18:03:23.965Z,100728.06
2023-06-19T18:05:52.751Z,100728.06
2023-06-19T18:08:21.864Z,100725.56
2023-06-19T18:10:50.806Z,100724.31
2023-06-19T18:13:19.961Z,100725.53
2023-06-19T18:15:58.850Z,100730.13
2023-06-19T18:18:38.623Z,100730.13
2023-06-19T18:21:07.404Z,100730.13
2023-06-19T18:23:36.907Z,100733.03
2023-06-19T18:26:05.672Z,100728.41
2023-06-19T18:28:35.235Z,100733.66
2023-06-19T18:31:04.090Z,100734.72
2023-06-19T18:33:33.286Z,100733.00
2023-06-19T18:36:02.279Z,100735.91
2023-06-19T18:38:31.538Z,100737.59
2023-06-19T18:41:00.354Z,100732.38
2023-06-19T18:43:29.543Z,100729.31
2023-06-19T18:45:58.354Z,100730.50
2023-06-19T18:48:29.111Z,100730.50
2023-06-19T18:50:58.108Z,100719.22
2023-06-19T18:53:27.261Z,100727.59
2023-06-19T18:55:56.850Z,100724.66
2023-06-19T18:58:26.173Z,100721.75
2023-06-19T19:00:55.032Z,100717.97
2023-06-19T19:03:24.510Z,100717.97
2023-06-19T19:05:53.486Z,100711.94
2023-06-19T19:08:24.156Z,100716.31
2023-06-19T19:10:53.005Z,100716.31
2023-06-19T19:13:22.168Z,100715.50
2023-06-19T19:15:51.088Z,100719.03
2023-06-19T19:18:20.193Z,100716.31
2023-06-19T19:20:49.153Z,100721.75
2023-06-19T19:23:18.251Z,100721.75
2023-06-19T19:25:47.020Z,100729.03
2023-06-19T19:28:16.236Z,100735.47
2023-06-19T19:30:46.405Z,100738.19
2023-06-19T19:33:17.554Z,100734.84
2023-06-19T19:35:46.482Z,100747.56
2023-06-19T19:38:18.951Z,100747.56
2023-06-19T19:40:48.390Z,100748.78
2023-06-19T19:43:18.003Z,100740.88
2023-06-19T19:45:46.859Z,100752.75
2023-06-19T19:48:16.132Z,100754.19
2023-06-19T19:50:45.028Z,100752.50
2023-06-19T19:53:14.214Z,100749.16
2023-06-19T19:55:43.497Z,100749.16
2023-06-19T19:58:14.677Z,100760.00
2023-06-19T20:00:48.701Z,100754.56
2023-06-19T20:03:18.393Z,100750.22
2023-06-19T20:05:47.384Z,100755.81
2023-06-19T20:08:16.487Z,100746.88
2023-06-19T20:10:46.799Z,100742.28
2023-06-19T20:13:16.221Z,100743.34
2023-06-19T20:15:48.043Z,100750.41
2023-06-19T20:18:17.361Z,100753.31
2023-06-19T20:20:46.409Z,100765.81
2023-06-19T20:23:15.549Z,100773.94
2023-06-19T20:25:46.128Z,100782.91
2023-06-19T20:28:15.266Z,100784.16
2023-06-19T20:30:44.191Z,100781.00
2023-06-19T20:33:13.600Z,100772.06
2023-06-19T20:35:42.517Z,100776.84
2023-06-19T20:38:11.848Z,100777.47
2023-06-19T20:40:40.775Z,100778.28
2023-06-19T20:43:10.429Z,100773.91
2023-06-19T20:45:42.052Z,100778.28
2023-06-19T20:48:11.355Z,100766.63
2023-06-19T20:50:40.159Z,100770.38
2023-06-19T20:53:09.309Z,100771.81
2023-06-19T20:55:38.226Z,100770.63
2023-06-19T20:58:07.487Z,100767.28
2023-06-19T21:00:36.367Z,100774.44
2023-06-19T21:03:10.078Z,100784.63
2023-06-19T21:05:40.920Z,100786.59
2023-06-19T21:08:10.158Z,100782.06
2023-06-19T21:10:41.462Z,100786.03
2023-06-19T21:15:46.861Z,100788.63
2023-06-19T21:18:16.703Z,100797.16
2023-06-19T21:20:45.631Z,100799.56
2023-06-19T21:23:15.059Z,100801.28
2023-06-19T21:25:43.916Z,100815.47
2023-06-19T21:28:13.151Z,100812.13
2023-06-19T21:30:42.051Z,100802.28
2023-06-19T21:33:11.490Z,100813.28
2023-06-19T21:35:40.435Z,100818.91
2023-06-19T21:38:09.584Z,100818.91
2023-06-19T21:40:38.451Z,100828.44
2023-06-19T21:43:08.217Z,100830.66
2023-06-19T21:45:37.145Z,100837.09
2023-06-19T21:48:06.553Z,100834.75
2023-06-19T21:50:35.574Z,100848.94
2023-06-19T21:53:04.739Z,100842.63
2023-06-19T21:55:33.530Z,100844.28
2023-06-19T21:58:02.847Z,100846.31
2023-06-19T22:00:31.618Z,100849.47
2023-06-19T22:03:00.917Z,100848.25
2023-06-19T22:05:30.037Z,100852.13
2023-06-19T22:07:59.268Z,100857.78
2023-06-19T22:10:28.291Z,100854.34
2023-06-19T22:12:57.908Z,100862.16
2023-06-19T22:15:26.852Z,100849.19
2023-06-19T22:17:55.951Z,100861.31
2023-06-19T22:20:25.015Z,100862.66
2023-06-19T22:22:54.321Z,100862.16
2023-06-19T22:25:23.212Z,100863.50
2023-06-19T22:27:55.809Z,100863.00
2023-06-19T22:30:25.166Z,100868.47
2023-06-19T22:32:55.097Z,100868.09
2023-06-19T22:35:24.475Z,100863.06
2023-06-19T22:37:54.454Z,100868.09
2023-06-19T22:40:24.260Z,100860.75
2023-06-19T22:42:54.017Z,100865.13
2023-06-19T22:45:23.108Z,100863.91
2023-06-19T22:47:52.740Z,100860.63
2023-06-19T22:50:21.743Z,100857.50
2023-06-19T22:52:50.918Z,100858.50
2023-06-19T22:55:19.888Z,100857.72
2023-06-19T22:57:49.660Z,100849.81
2023-06-19T23:00:18.583Z,100848.56
2023-06-19T23:02:47.780Z,100853.16
2023-06-19T23:05:17.336Z,100853.78
2023-06-19T23:07:46.460Z,100846.06
2023-06-19T23:10:15.278Z,100843.13
2023-06-19T23:12:44.697Z,100855.09
2023-06-19T23:15:13.672Z,100851.84
2023-06-19T23:17:42.849Z,100849.69
2023-06-19T23:20:15.625Z,100852.03
2023-06-19T23:22:44.777Z,100852.81
2023-06-19T23:25:13.597Z,100850.75
2023-06-19T23:27:42.636Z,100852.53
2023-06-19T23:30:11.754Z,100846.03
2023-06-19T23:32:41.036Z,100846.81
2023-06-19T23:35:10.144Z,100845.66
2023-06-19T23:37:39.611Z,100849.19
2023-06-19T23:40:09.480Z,100848.53
2023-06-19T23:42:38.962Z,100849.75
2023-06-19T23:45:08.670Z,100856.63
2023-06-19T23:47:37.889Z,100845.22
2023-06-19T23:50:08.336Z,100848.09
2023-06-19T23:52:43.447Z,100850.25
2023-06-19T23:55:13.342Z,100844.06
2023-06-19T23:57:42.429Z,100854.16
